Cornwall On Hudson, New York
Current Conditions -  °F | °C
As of 12:45 AM on Thursday 18 Dec 2014 (Local Time) from KSWF Reporting Station
Overcast Overcast  
Wind Chill: 27°   Ceiling: 3000
Heat Index: 37°   Visibility: 10mi
Dew Point: 30°   Wind: 18mph
Humidity: 75%   Direction: 310°NW
Pressure: 29.87"   Gusts: NA
Location:  41.44°N, 74.02°W
Report Text: KSWF 180545Z 31016KT 10SM OVC030 03/M01 A2987
Loading
Personal Weather Stations






























Interactive Weather Map New forecast layout! Learn more

10-Day Weather Forecast

Advertisements
Track Severe Weather on mobile